sensor_id;sensor_type;location;lat;lon;timestamp;pressure;altitude;pressure_sealevel;temperature
69545;BMP180;56766;52.260;20.746;2022-12-18T00:01:35;101726.80;;;-4.10
69545;BMP180;56766;52.260;20.746;2022-12-18T00:04:05;101723.20;;;-4.10
69545;BMP180;56766;52.260;20.746;2022-12-18T00:06:35;101730.40;;;-4.10
69545;BMP180;56766;52.260;20.746;2022-12-18T00:09:03;101732.60;;;-4.00
69545;BMP180;56766;52.260;20.746;2022-12-18T00:11:31;101741.60;;;-4.00
69545;BMP180;56766;52.260;20.746;2022-12-18T00:13:59;101739.80;;;-4.00
69545;BMP180;56766;52.260;20.746;2022-12-18T00:16:28;101746.00;;;-3.98
69545;BMP180;56766;52.260;20.746;2022-12-18T00:18:57;101744.60;;;-3.90
69545;BMP180;56766;52.260;20.746;2022-12-18T00:21:28;101747.80;;;-3.90
69545;BMP180;56766;52.260;20.746;2022-12-18T00:23:57;101750.20;;;-3.90
69545;BMP180;56766;52.260;20.746;2022-12-18T00:26:28;101748.80;;;-3.90
69545;BMP180;56766;52.260;20.746;2022-12-18T00:29:10;101752.20;;;-4.00
69545;BMP180;56766;52.260;20.746;2022-12-18T00:31:38;101757.60;;;-4.00
69545;BMP180;56766;52.260;20.746;2022-12-18T00:34:04;101752.40;;;-4.00
69545;BMP180;56766;52.260;20.746;2022-12-18T00:36:34;101761.00;;;-4.00
69545;BMP180;56766;52.260;20.746;2022-12-18T00:39:04;101766.80;;;-4.02
69545;BMP180;56766;52.260;20.746;2022-12-18T00:41:32;101775.20;;;-4.10
69545;BMP180;56766;52.260;20.746;2022-12-18T00:44:19;101780.20;;;-4.08
69545;BMP180;56766;52.260;20.746;2022-12-18T00:46:47;101779.80;;;-4.08
69545;BMP180;56766;52.260;20.746;2022-12-18T00:49:18;101780.20;;;-4.02
69545;BMP180;56766;52.260;20.746;2022-12-18T00:51:45;101777.80;;;-4.00
69545;BMP180;56766;52.260;20.746;2022-12-18T00:54:12;101782.20;;;-4.00
69545;BMP180;56766;52.260;20.746;2022-12-18T00:56:40;101785.40;;;-4.00
69545;BMP180;56766;52.260;20.746;2022-12-18T00:59:07;101791.40;;;-4.00
69545;BMP180;56766;52.260;20.746;2022-12-18T01:01:33;101788.40;;;-4.10
69545;BMP180;56766;52.260;20.746;2022-12-18T01:04:02;101797.80;;;-4.10
69545;BMP180;56766;52.260;20.746;2022-12-18T01:06:29;101804.00;;;-4.10
69545;BMP180;56766;52.260;20.746;2022-12-18T01:08:57;101807.40;;;-4.10
69545;BMP180;56766;52.260;20.746;2022-12-18T01:11:24;101806.20;;;-4.02
69545;BMP180;56766;52.260;20.746;2022-12-18T01:13:53;101813.80;;;-4.00
69545;BMP180;56766;52.260;20.746;2022-12-18T01:16:22;101809.80;;;-4.00
69545;BMP180;56766;52.260;20.746;2022-12-18T01:18:52;101817.00;;;-4.00
69545;BMP180;56766;52.260;20.746;2022-12-18T01:21:22;101821.20;;;-4.00
69545;BMP180;56766;52.260;20.746;2022-12-18T01:23:56;101816.20;;;-4.00
69545;BMP180;56766;52.260;20.746;2022-12-18T01:26:25;101821.80;;;-3.94
69545;BMP180;56766;52.260;20.746;2022-12-18T01:28:54;101821.00;;;-3.90
69545;BMP180;56766;52.260;20.746;2022-12-18T01:31:28;101820.80;;;-3.90
69545;BMP180;56766;52.260;20.746;2022-12-18T01:33:57;101828.80;;;-3.90
69545;BMP180;56766;52.260;20.746;2022-12-18T01:36:28;101833.80;;;-3.90
69545;BMP180;56766;52.260;20.746;2022-12-18T01:38:56;101836.20;;;-3.90
69545;BMP180;56766;52.260;20.746;2022-12-18T01:41:27;101833.40;;;-3.80
69545;BMP180;56766;52.260;20.746;2022-12-18T01:47:44;101838.40;;;-3.72
69545;BMP180;56766;52.260;20.746;2022-12-18T01:50:22;101853.20;;;-3.70
69545;BMP180;56766;52.260;20.746;2022-12-18T01:53:10;101858.00;;;-3.70
69545;BMP180;56766;52.260;20.746;2022-12-18T01:55:58;101861.80;;;-3.60
69545;BMP180;56766;52.260;20.746;2022-12-18T02:01:18;101865.60;;;-3.50
69545;BMP180;56766;52.260;20.746;2022-12-18T02:03:46;101869.00;;;-3.50
69545;BMP180;56766;52.260;20.746;2022-12-18T02:06:20;101874.00;;;-3.50
69545;BMP180;56766;52.260;20.746;2022-12-18T02:09:02;101878.80;;;-3.50
69545;BMP180;56766;52.260;20.746;2022-12-18T02:17:42;101889.00;;;-3.46
69545;BMP180;56766;52.260;20.746;2022-12-18T02:20:37;101897.40;;;-3.44
69545;BMP180;56766;52.260;20.746;2022-12-18T02:26:52;101912.60;;;-3.40
69545;BMP180;56766;52.260;20.746;2022-12-18T02:29:29;101911.80;;;-3.40
69545;BMP180;56766;52.260;20.746;2022-12-18T02:32:03;101915.00;;;-3.40
69545;BMP180;56766;52.260;20.746;2022-12-18T02:34:38;101915.00;;;-3.40
69545;BMP180;56766;52.260;20.746;2022-12-18T02:37:13;101917.20;;;-3.40
69545;BMP180;56766;52.260;20.746;2022-12-18T02:39:46;101916.80;;;-3.40
69545;BMP180;56766;52.260;20.746;2022-12-18T02:42:16;101924.00;;;-3.40
69545;BMP180;56766;52.260;20.746;2022-12-18T02:44:48;101920.60;;;-3.40
69545;BMP180;56766;52.260;20.746;2022-12-18T02:47:24;101923.40;;;-3.40
69545;BMP180;56766;52.260;20.746;2022-12-18T02:53:26;101929.40;;;-3.50
69545;BMP180;56766;52.260;20.746;2022-12-18T02:56:17;101929.60;;;-3.50
69545;BMP180;56766;52.260;20.746;2022-12-18T02:59:00;101939.40;;;-3.50
69545;BMP180;56766;52.260;20.746;2022-12-18T03:05:07;101952.20;;;-3.60
69545;BMP180;56766;52.260;20.746;2022-12-18T03:07:33;101955.80;;;-3.60
69545;BMP180;56766;52.260;20.746;2022-12-18T03:10:01;101963.00;;;-3.60
69545;BMP180;56766;52.260;20.746;2022-12-18T03:12:40;101965.20;;;-3.64
69545;BMP180;56766;52.260;20.746;2022-12-18T03:15:26;101968.20;;;-3.70
69545;BMP180;56766;52.260;20.746;2022-12-18T03:18:04;101963.20;;;-3.70
69545;BMP180;56766;52.260;20.746;2022-12-18T03:20:35;101976.40;;;-3.70
69545;BMP180;56766;52.260;20.746;2022-12-18T03:23:16;101980.00;;;-3.76
69545;BMP180;56766;52.260;20.746;2022-12-18T03:25:45;101978.60;;;-3.80
69545;BMP180;56766;52.260;20.746;2022-12-18T03:28:21;101986.20;;;-3.80
69545;BMP180;56766;52.260;20.746;2022-12-18T03:30:57;101993.80;;;-3.90
69545;BMP180;56766;52.260;20.746;2022-12-18T03:33:39;101992.80;;;-3.90
69545;BMP180;56766;52.260;20.746;2022-12-18T03:36:08;101992.80;;;-3.90
69545;BMP180;56766;52.260;20.746;2022-12-18T03:38:35;101998.40;;;-3.90
69545;BMP180;56766;52.260;20.746;2022-12-18T03:41:40;101995.20;;;-3.90
69545;BMP180;56766;52.260;20.746;2022-12-18T03:47:30;102002.20;;;-4.00
69545;BMP180;56766;52.260;20.746;2022-12-18T03:50:45;102005.40;;;-4.10
69545;BMP180;56766;52.260;20.746;2022-12-18T03:53:55;102004.80;;;-4.20
69545;BMP180;56766;52.260;20.746;2022-12-18T03:56:35;102003.20;;;-4.34
69545;BMP180;56766;52.260;20.746;2022-12-18T03:59:06;102003.40;;;-4.48
69545;BMP180;56766;52.260;20.746;2022-12-18T04:01:42;102010.20;;;-4.60
69545;BMP180;56766;52.260;20.746;2022-12-18T04:04:13;102012.00;;;-4.70
69545;BMP180;56766;52.260;20.746;2022-12-18T04:06:43;102014.20;;;-4.80
69545;BMP180;56766;52.260;20.746;2022-12-18T04:09:12;102029.40;;;-4.90
69545;BMP180;56766;52.260;20.746;2022-12-18T04:11:41;102029.40;;;-5.00
69545;BMP180;56766;52.260;20.746;2022-12-18T04:14:10;102044.00;;;-5.10
69545;BMP180;56766;52.260;20.746;2022-12-18T04:16:37;102048.20;;;-5.10
69545;BMP180;56766;52.260;20.746;2022-12-18T04:19:04;102049.20;;;-5.10
69545;BMP180;56766;52.260;20.746;2022-12-18T04:21:31;102049.60;;;-5.10
69545;BMP180;56766;52.260;20.746;2022-12-18T04:23:58;102056.80;;;-5.06
69545;BMP180;56766;52.260;20.746;2022-12-18T04:26:24;102062.00;;;-5.00
69545;BMP180;56766;52.260;20.746;2022-12-18T04:28:51;102062.20;;;-5.00
69545;BMP180;56766;52.260;20.746;2022-12-18T04:31:18;102070.20;;;-4.90
69545;BMP180;56766;52.260;20.746;2022-12-18T04:33:45;102075.40;;;-4.90
69545;BMP180;56766;52.260;20.746;2022-12-18T04:36:11;102081.40;;;-4.90
69545;BMP180;56766;52.260;20.746;2022-12-18T04:38:39;102082.80;;;-4.90
69545;BMP180;56766;52.260;20.746;2022-12-18T04:41:05;102087.40;;;-4.90
69545;BMP180;56766;52.260;20.746;2022-12-18T04:43:32;102088.80;;;-4.90
69545;BMP180;56766;52.260;20.746;2022-12-18T04:46:05;102092.80;;;-4.90
69545;BMP180;56766;52.260;20.746;2022-12-18T04:48:34;102093.60;;;-4.90
69545;BMP180;56766;52.260;20.746;2022-12-18T04:51:01;102094.60;;;-5.00
69545;BMP180;56766;52.260;20.746;2022-12-18T04:53:27;102092.60;;;-5.10
69545;BMP180;56766;52.260;20.746;2022-12-18T04:56:14;102096.20;;;-5.20
69545;BMP180;56766;52.260;20.746;2022-12-18T04:58:44;102096.00;;;-5.30
69545;BMP180;56766;52.260;20.746;2022-12-18T05:01:13;102097.80;;;-5.30
69545;BMP180;56766;52.260;20.746;2022-12-18T05:03:40;102104.60;;;-5.30
69545;BMP180;56766;52.260;20.746;2022-12-18T05:06:08;102103.20;;;-5.30
69545;BMP180;56766;52.260;20.746;2022-12-18T05:08:36;102111.60;;;-5.30
69545;BMP180;56766;52.260;20.746;2022-12-18T05:11:08;102113.00;;;-5.40
69545;BMP180;56766;52.260;20.746;2022-12-18T05:13:35;102118.00;;;-5.40
69545;BMP180;56766;52.260;20.746;2022-12-18T05:16:02;102118.80;;;-5.50
69545;BMP180;56766;52.260;20.746;2022-12-18T05:18:31;102127.80;;;-5.50
69545;BMP180;56766;52.260;20.746;2022-12-18T05:20:58;102138.20;;;-5.50
69545;BMP180;56766;52.260;20.746;2022-12-18T05:23:26;102136.60;;;-5.50
69545;BMP180;56766;52.260;20.746;2022-12-18T05:26:01;102133.80;;;-5.56
69545;BMP180;56766;52.260;20.746;2022-12-18T05:28:31;102145.80;;;-5.50
69545;BMP180;56766;52.260;20.746;2022-12-18T05:31:01;102141.00;;;-5.50
69545;BMP180;56766;52.260;20.746;2022-12-18T05:33:33;102141.40;;;-5.50
69545;BMP180;56766;52.260;20.746;2022-12-18T05:36:03;102152.20;;;-5.40
69545;BMP180;56766;52.260;20.746;2022-12-18T05:38:33;102160.80;;;-5.40
69545;BMP180;56766;52.260;20.746;2022-12-18T05:41:00;102159.00;;;-5.30
69545;BMP180;56766;52.260;20.746;2022-12-18T05:43:27;102168.40;;;-5.30
69545;BMP180;56766;52.260;20.746;2022-12-18T05:45:56;102162.40;;;-5.26
69545;BMP180;56766;52.260;20.746;2022-12-18T05:48:24;102153.40;;;-5.28
69545;BMP180;56766;52.260;20.746;2022-12-18T05:50:51;102164.20;;;-5.26
69545;BMP180;56766;52.260;20.746;2022-12-18T05:53:20;102167.60;;;-5.20
69545;BMP180;56766;52.260;20.746;2022-12-18T05:55:47;102167.60;;;-5.20
69545;BMP180;56766;52.260;20.746;2022-12-18T05:58:15;102170.20;;;-5.20
69545;BMP180;56766;52.260;20.746;2022-12-18T06:00:45;102173.00;;;-5.20
69545;BMP180;56766;52.260;20.746;2022-12-18T06:03:13;102169.20;;;-5.20
69545;BMP180;56766;52.260;20.746;2022-12-18T06:05:44;102176.40;;;-5.20
69545;BMP180;56766;52.260;20.746;2022-12-18T06:08:13;102182.20;;;-5.12
69545;BMP180;56766;52.260;20.746;2022-12-18T06:10:41;102188.20;;;-5.10
69545;BMP180;56766;52.260;20.746;2022-12-18T06:13:08;102190.00;;;-5.12
69545;BMP180;56766;52.260;20.746;2022-12-18T06:15:37;102201.20;;;-5.20
69545;BMP180;56766;52.260;20.746;2022-12-18T06:18:04;102208.60;;;-5.14
69545;BMP180;56766;52.260;20.746;2022-12-18T06:20:31;102217.40;;;-5.12
69545;BMP180;56766;52.260;20.746;2022-12-18T06:22:58;102216.00;;;-5.10
69545;BMP180;56766;52.260;20.746;2022-12-18T06:25:24;102218.20;;;-5.10
69545;BMP180;56766;52.260;20.746;2022-12-18T06:27:51;102221.20;;;-5.10
69545;BMP180;56766;52.260;20.746;2022-12-18T06:30:18;102226.60;;;-5.00
69545;BMP180;56766;52.260;20.746;2022-12-18T06:32:45;102228.60;;;-5.00
69545;BMP180;56766;52.260;20.746;2022-12-18T06:35:11;102230.40;;;-5.00
69545;BMP180;56766;52.260;20.746;2022-12-18T06:37:38;102239.60;;;-4.92
69545;BMP180;56766;52.260;20.746;2022-12-18T06:40:06;102239.40;;;-4.90
69545;BMP180;56766;52.260;20.746;2022-12-18T06:42:33;102245.00;;;-4.90
69545;BMP180;56766;52.260;20.746;2022-12-18T06:44:59;102249.20;;;-4.82
69545;BMP180;56766;52.260;20.746;2022-12-18T06:47:26;102258.40;;;-4.80
69545;BMP180;56766;52.260;20.746;2022-12-18T06:49:53;102260.40;;;-4.78
69545;BMP180;56766;52.260;20.746;2022-12-18T06:52:19;102261.80;;;-4.70
69545;BMP180;56766;52.260;20.746;2022-12-18T06:54:46;102264.00;;;-4.60
69545;BMP180;56766;52.260;20.746;2022-12-18T06:57:13;102264.20;;;-4.60
69545;BMP180;56766;52.260;20.746;2022-12-18T06:59:39;102271.40;;;-4.60
69545;BMP180;56766;52.260;20.746;2022-12-18T07:02:11;102273.00;;;-4.52
69545;BMP180;56766;52.260;20.746;2022-12-18T07:04:39;102270.20;;;-4.50
69545;BMP180;56766;52.260;20.746;2022-12-18T07:07:05;102276.20;;;-4.42
69545;BMP180;56766;52.260;20.746;2022-12-18T07:09:32;102278.80;;;-4.40
69545;BMP180;56766;52.260;20.746;2022-12-18T07:11:59;102279.80;;;-4.30
69545;BMP180;56766;52.260;20.746;2022-12-18T07:14:26;102277.40;;;-4.30
69545;BMP180;56766;52.260;20.746;2022-12-18T07:16:53;102285.60;;;-4.30
69545;BMP180;56766;52.260;20.746;2022-12-18T07:19:20;102289.00;;;-4.30
69545;BMP180;56766;52.260;20.746;2022-12-18T07:21:51;102291.60;;;-4.30
69545;BMP180;56766;52.260;20.746;2022-12-18T07:24:18;102299.20;;;-4.28
69545;BMP180;56766;52.260;20.746;2022-12-18T07:26:47;102293.00;;;-4.20
69545;BMP180;56766;52.260;20.746;2022-12-18T07:29:14;102306.00;;;-4.10
69545;BMP180;56766;52.260;20.746;2022-12-18T07:31:41;102306.00;;;-4.08
69545;BMP180;56766;52.260;20.746;2022-12-18T07:34:14;102313.60;;;-4.00
69545;BMP180;56766;52.260;20.746;2022-12-18T07:36:41;102321.60;;;-3.90
69545;BMP180;56766;52.260;20.746;2022-12-18T07:39:08;102330.00;;;-3.90
69545;BMP180;56766;52.260;20.746;2022-12-18T07:41:35;102325.80;;;-3.80
69545;BMP180;56766;52.260;20.746;2022-12-18T07:44:01;102330.00;;;-3.72
69545;BMP180;56766;52.260;20.746;2022-12-18T07:46:28;102329.20;;;-3.68
69545;BMP180;56766;52.260;20.746;2022-12-18T07:48:55;102331.00;;;-3.56
69545;BMP180;56766;52.260;20.746;2022-12-18T07:51:21;102340.80;;;-3.40
69545;BMP180;56766;52.260;20.746;2022-12-18T07:53:48;102350.00;;;-3.30
69545;BMP180;56766;52.260;20.746;2022-12-18T07:56:15;102350.80;;;-3.22
69545;BMP180;56766;52.260;20.746;2022-12-18T07:58:41;102354.20;;;-3.20
69545;BMP180;56766;52.260;20.746;2022-12-18T08:01:11;102355.00;;;-3.20
69545;BMP180;56766;52.260;20.746;2022-12-18T08:03:40;102363.20;;;-3.14
69545;BMP180;56766;52.260;20.746;2022-12-18T08:06:09;102364.40;;;-3.10
69545;BMP180;56766;52.260;20.746;2022-12-18T08:08:36;102366.40;;;-3.10
69545;BMP180;56766;52.260;20.746;2022-12-18T08:11:03;102371.40;;;-3.10
69545;BMP180;56766;52.260;20.746;2022-12-18T08:13:31;102375.80;;;-3.00
69545;BMP180;56766;52.260;20.746;2022-12-18T08:16:05;102380.20;;;-3.00
69545;BMP180;56766;52.260;20.746;2022-12-18T08:18:35;102389.60;;;-2.80
69545;BMP180;56766;52.260;20.746;2022-12-18T08:23:36;102389.80;;;-2.80
69545;BMP180;56766;52.260;20.746;2022-12-18T08:26:03;102398.00;;;-2.72
69545;BMP180;56766;52.260;20.746;2022-12-18T08:28:30;102401.00;;;-2.70
69545;BMP180;56766;52.260;20.746;2022-12-18T08:30:57;102400.60;;;-2.60
69545;BMP180;56766;52.260;20.746;2022-12-18T08:33:25;102405.40;;;-2.50
69545;BMP180;56766;52.260;20.746;2022-12-18T08:35:53;102405.80;;;-2.48
69545;BMP180;56766;52.260;20.746;2022-12-18T08:38:19;102412.60;;;-2.40
69545;BMP180;56766;52.260;20.746;2022-12-18T08:40:46;102419.60;;;-2.40
69545;BMP180;56766;52.260;20.746;2022-12-18T08:43:13;102411.00;;;-2.36
69545;BMP180;56766;52.260;20.746;2022-12-18T08:45:58;102413.00;;;-2.28
69545;BMP180;56766;52.260;20.746;2022-12-18T08:48:25;102410.40;;;-2.20
69545;BMP180;56766;52.260;20.746;2022-12-18T08:50:59;102416.20;;;-2.10
69545;BMP180;56766;52.260;20.746;2022-12-18T08:53:27;102418.40;;;-2.10
69545;BMP180;56766;52.260;20.746;2022-12-18T08:55:53;102419.20;;;-2.00
69545;BMP180;56766;52.260;20.746;2022-12-18T08:58:20;102426.00;;;-1.90
69545;BMP180;56766;52.260;20.746;2022-12-18T09:00:47;102421.60;;;-2.00
69545;BMP180;56766;52.260;20.746;2022-12-18T09:03:17;102424.40;;;-2.00
69545;BMP180;56766;52.260;20.746;2022-12-18T09:05:45;102423.20;;;-1.90
69545;BMP180;56766;52.260;20.746;2022-12-18T09:08:12;102426.40;;;-1.80
69545;BMP180;56766;52.260;20.746;2022-12-18T09:10:47;102431.80;;;-1.74
69545;BMP180;56766;52.260;20.746;2022-12-18T09:13:16;102437.00;;;-1.70
69545;BMP180;56766;52.260;20.746;2022-12-18T09:15:47;102436.40;;;-1.68
69545;BMP180;56766;52.260;20.746;2022-12-18T09:18:16;102434.80;;;-1.70
69545;BMP180;56766;52.260;20.746;2022-12-18T09:20:44;102438.80;;;-1.70
69545;BMP180;56766;52.260;20.746;2022-12-18T09:23:12;102439.00;;;-1.70
69545;BMP180;56766;52.260;20.746;2022-12-18T09:25:39;102450.00;;;-1.60
69545;BMP180;56766;52.260;20.746;2022-12-18T09:28:17;102442.20;;;-1.70
69545;BMP180;56766;52.260;20.746;2022-12-18T09:30:48;102447.80;;;-1.70
69545;BMP180;56766;52.260;20.746;2022-12-18T09:33:17;102444.20;;;-1.70
69545;BMP180;56766;52.260;20.746;2022-12-18T09:35:45;102445.60;;;-1.60
69545;BMP180;56766;52.260;20.746;2022-12-18T09:38:18;102437.40;;;-1.52
69545;BMP180;56766;52.260;20.746;2022-12-18T09:40:52;102437.80;;;-1.40
69545;BMP180;56766;52.260;20.746;2022-12-18T09:43:30;102441.40;;;-1.20
69545;BMP180;56766;52.260;20.746;2022-12-18T09:46:11;102447.00;;;-1.10
69545;BMP180;56766;52.260;20.746;2022-12-18T09:48:48;102444.80;;;-1.00
69545;BMP180;56766;52.260;20.746;2022-12-18T09:51:49;102442.40;;;-1.00
69545;BMP180;56766;52.260;20.746;2022-12-18T09:54:30;102439.00;;;-0.90
69545;BMP180;56766;52.260;20.746;2022-12-18T09:56:59;102446.20;;;-0.80
69545;BMP180;56766;52.260;20.746;2022-12-18T09:59:35;102451.60;;;-0.90
69545;BMP180;56766;52.260;20.746;2022-12-18T10:02:19;102451.20;;;-0.90
69545;BMP180;56766;52.260;20.746;2022-12-18T10:05:12;102460.40;;;-1.00
69545;BMP180;56766;52.260;20.746;2022-12-18T10:11:23;102472.40;;;-0.70
69545;BMP180;56766;52.260;20.746;2022-12-18T10:14:28;102469.20;;;-0.86
69545;BMP180;56766;52.260;20.746;2022-12-18T10:20:56;102458.00;;;-0.90
69545;BMP180;56766;52.260;20.746;2022-12-18T10:23:42;102459.00;;;-0.70
69545;BMP180;56766;52.260;20.746;2022-12-18T10:26:12;102447.00;;;-0.58
69545;BMP180;56766;52.260;20.746;2022-12-18T10:28:41;102456.80;;;-0.60
69545;BMP180;56766;52.260;20.746;2022-12-18T10:31:21;102449.20;;;-0.68
69545;BMP180;56766;52.260;20.746;2022-12-18T10:33:49;102453.20;;;-0.70
69545;BMP180;56766;52.260;20.746;2022-12-18T10:36:16;102454.80;;;-0.60
69545;BMP180;56766;52.260;20.746;2022-12-18T10:38:43;102454.20;;;-0.62
69545;BMP180;56766;52.260;20.746;2022-12-18T10:43:48;102446.40;;;-0.42
69545;BMP180;56766;52.260;20.746;2022-12-18T10:46:20;102445.00;;;-0.32
69545;BMP180;56766;52.260;20.746;2022-12-18T10:51:35;102454.00;;;-0.20
69545;BMP180;56766;52.260;20.746;2022-12-18T10:54:17;102450.20;;;-0.30
69545;BMP180;56766;52.260;20.746;2022-12-18T10:56:45;102450.60;;;-0.30
69545;BMP180;56766;52.260;20.746;2022-12-18T10:59:17;102456.00;;;-0.20
69545;BMP180;56766;52.260;20.746;2022-12-18T11:04:32;102460.00;;;0.10
69545;BMP180;56766;52.260;20.746;2022-12-18T11:07:08;102457.40;;;0.18
69545;BMP180;56766;52.260;20.746;2022-12-18T11:09:39;102449.40;;;0.20
69545;BMP180;56766;52.260;20.746;2022-12-18T11:12:19;102445.80;;;0.20
69545;BMP180;56766;52.260;20.746;2022-12-18T11:14:51;102446.60;;;0.14
69545;BMP180;56766;52.260;20.746;2022-12-18T11:17:29;102444.80;;;0.08
69545;BMP180;56766;52.260;20.746;2022-12-18T11:20:01;102448.20;;;-0.10
69545;BMP180;56766;52.260;20.746;2022-12-18T11:22:32;102453.80;;;-0.10
69545;BMP180;56766;52.260;20.746;2022-12-18T11:25:19;102456.00;;;-0.12
69545;BMP180;56766;52.260;20.746;2022-12-18T11:27:58;102450.60;;;-0.24
69545;BMP180;56766;52.260;20.746;2022-12-18T11:30:32;102451.60;;;-0.20
69545;BMP180;56766;52.260;20.746;2022-12-18T11:33:21;102456.80;;;-0.10
69545;BMP180;56766;52.260;20.746;2022-12-18T11:35:59;102456.60;;;-0.04
69545;BMP180;56766;52.260;20.746;2022-12-18T11:38:42;102465.20;;;0.00
69545;BMP180;56766;52.260;20.746;2022-12-18T11:41:21;102461.20;;;0.00
69545;BMP180;56766;52.260;20.746;2022-12-18T11:44:27;102453.40;;;-0.10
69545;BMP180;56766;52.260;20.746;2022-12-18T11:47:05;102461.60;;;-0.10
69545;BMP180;56766;52.260;20.746;2022-12-18T11:49:36;102459.60;;;0.00
69545;BMP180;56766;52.260;20.746;2022-12-18T11:52:35;102458.00;;;0.00
69545;BMP180;56766;52.260;20.746;2022-12-18T11:55:36;102466.60;;;0.04
69545;BMP180;56766;52.260;20.746;2022-12-18T12:04:55;102476.00;;;0.20
69545;BMP180;56766;52.260;20.746;2022-12-18T12:07:32;102480.40;;;0.20
69545;BMP180;56766;52.260;20.746;2022-12-18T12:16:38;102470.80;;;0.20
69545;BMP180;56766;52.260;20.746;2022-12-18T12:19:34;102472.60;;;0.14
69545;BMP180;56766;52.260;20.746;2022-12-18T12:22:30;102478.20;;;0.08
69545;BMP180;56766;52.260;20.746;2022-12-18T12:25:18;102478.60;;;-0.10
69545;BMP180;56766;52.260;20.746;2022-12-18T12:37:27;102505.40;;;-0.40
69545;BMP180;56766;52.260;20.746;2022-12-18T12:40:01;102506.20;;;-0.50
69545;BMP180;56766;52.260;20.746;2022-12-18T12:43:18;102507.20;;;-0.50
69545;BMP180;56766;52.260;20.746;2022-12-18T12:45:54;102511.80;;;-0.50
69545;BMP180;56766;52.260;20.746;2022-12-18T12:49:04;102524.00;;;-0.50
69545;BMP180;56766;52.260;20.746;2022-12-18T12:51:40;102523.40;;;-0.60
69545;BMP180;56766;52.260;20.746;2022-12-18T12:54:25;102529.00;;;-0.70
69545;BMP180;56766;52.260;20.746;2022-12-18T12:57:08;102534.60;;;-0.80
69545;BMP180;56766;52.260;20.746;2022-12-18T13:00:06;102539.60;;;-0.80
69545;BMP180;56766;52.260;20.746;2022-12-18T13:03:27;102544.20;;;-0.90
69545;BMP180;56766;52.260;20.746;2022-12-18T13:09:00;102566.00;;;-1.10
69545;BMP180;56766;52.260;20.746;2022-12-18T13:14:39;102563.20;;;-1.30
69545;BMP180;56766;52.260;20.746;2022-12-18T13:20:06;102562.20;;;-1.50
69545;BMP180;56766;52.260;20.746;2022-12-18T13:22:40;102568.00;;;-1.54
69545;BMP180;56766;52.260;20.746;2022-12-18T13:25:29;102565.40;;;-1.70
69545;BMP180;56766;52.260;20.746;2022-12-18T13:28:20;102571.20;;;-1.80
69545;BMP180;56766;52.260;20.746;2022-12-18T13:30:52;102573.20;;;-1.90
69545;BMP180;56766;52.260;20.746;2022-12-18T13:43:44;102584.20;;;-2.30
69545;BMP180;56766;52.260;20.746;2022-12-18T13:46:30;102595.20;;;-2.30
69545;BMP180;56766;52.260;20.746;2022-12-18T13:51:54;102590.20;;;-2.40
69545;BMP180;56766;52.260;20.746;2022-12-18T13:54:39;102590.60;;;-2.48
69545;BMP180;56766;52.260;20.746;2022-12-18T13:57:32;102593.00;;;-2.50
69545;BMP180;56766;52.260;20.746;2022-12-18T14:00:26;102592.40;;;-2.50
69545;BMP180;56766;52.260;20.746;2022-12-18T14:02:57;102593.20;;;-2.60
69545;BMP180;56766;52.260;20.746;2022-12-18T14:05:35;102599.00;;;-2.60
69545;BMP180;56766;52.260;20.746;2022-12-18T14:08:12;102611.40;;;-2.60
69545;BMP180;56766;52.260;20.746;2022-12-18T14:10:47;102606.20;;;-2.60
69545;BMP180;56766;52.260;20.746;2022-12-18T14:13:33;102605.40;;;-2.60
69545;BMP180;56766;52.260;20.746;2022-12-18T14:16:05;102605.60;;;-2.62
69545;BMP180;56766;52.260;20.746;2022-12-18T14:18:52;102600.60;;;-2.70
69545;BMP180;56766;52.260;20.746;2022-12-18T14:21:26;102599.60;;;-2.70
69545;BMP180;56766;52.260;20.746;2022-12-18T14:24:20;102602.60;;;-2.80
69545;BMP180;56766;52.260;20.746;2022-12-18T14:26:49;102612.60;;;-2.80
69545;BMP180;56766;52.260;20.746;2022-12-18T14:29:31;102613.20;;;-2.90
69545;BMP180;56766;52.260;20.746;2022-12-18T14:32:06;102616.20;;;-2.90
69545;BMP180;56766;52.260;20.746;2022-12-18T14:34:33;102615.80;;;-2.90
69545;BMP180;56766;52.260;20.746;2022-12-18T14:37:00;102616.60;;;-3.00
69545;BMP180;56766;52.260;20.746;2022-12-18T14:39:26;102616.40;;;-3.00
69545;BMP180;56766;52.260;20.746;2022-12-18T14:41:53;102622.40;;;-3.00
69545;BMP180;56766;52.260;20.746;2022-12-18T14:44:20;102626.60;;;-3.00
69545;BMP180;56766;52.260;20.746;2022-12-18T14:46:51;102627.80;;;-3.00
69545;BMP180;56766;52.260;20.746;2022-12-18T14:49:27;102627.40;;;-3.00
69545;BMP180;56766;52.260;20.746;2022-12-18T14:52:03;102627.40;;;-3.00
69545;BMP180;56766;52.260;20.746;2022-12-18T14:54:34;102630.40;;;-3.10
69545;BMP180;56766;52.260;20.746;2022-12-18T14:57:24;102634.80;;;-3.08
69545;BMP180;56766;52.260;20.746;2022-12-18T14:59:52;102635.60;;;-3.10
69545;BMP180;56766;52.260;20.746;2022-12-18T15:02:27;102628.20;;;-3.10
69545;BMP180;56766;52.260;20.746;2022-12-18T15:05:29;102640.40;;;-3.20
69545;BMP180;56766;52.260;20.746;2022-12-18T15:07:59;102636.80;;;-3.20
69545;BMP180;56766;52.260;20.746;2022-12-18T15:10:34;102634.40;;;-3.20
69545;BMP180;56766;52.260;20.746;2022-12-18T15:23:23;102649.60;;;-3.20
69545;BMP180;56766;52.260;20.746;2022-12-18T15:26:09;102653.20;;;-3.20
69545;BMP180;56766;52.260;20.746;2022-12-18T15:34:11;102652.60;;;-3.20
69545;BMP180;56766;52.260;20.746;2022-12-18T15:36:41;102662.60;;;-3.20
69545;BMP180;56766;52.260;20.746;2022-12-18T15:39:12;102658.60;;;-3.16
69545;BMP180;56766;52.260;20.746;2022-12-18T15:41:40;102656.80;;;-3.20
69545;BMP180;56766;52.260;20.746;2022-12-18T15:44:24;102661.80;;;-3.20
69545;BMP180;56766;52.260;20.746;2022-12-18T15:46:52;102664.80;;;-3.20
69545;BMP180;56766;52.260;20.746;2022-12-18T15:49:19;102663.00;;;-3.20
69545;BMP180;56766;52.260;20.746;2022-12-18T15:51:52;102665.00;;;-3.20
69545;BMP180;56766;52.260;20.746;2022-12-18T15:54:21;102666.60;;;-3.20
69545;BMP180;56766;52.260;20.746;2022-12-18T15:57:11;102659.00;;;-3.20
69545;BMP180;56766;52.260;20.746;2022-12-18T15:59:55;102657.80;;;-3.20
69545;BMP180;56766;52.260;20.746;2022-12-18T16:02:26;102664.00;;;-3.20
69545;BMP180;56766;52.260;20.746;2022-12-18T16:04:54;102665.00;;;-3.20